Time;durP1;ratioP1;P1;durP2;ratioP2;P2;SDS_P1;SDS_P2;PMS_P1;PMS_P2;Temp;Humidity;BMP_temperature;BMP_pressure;BME280_temperature;BME280_humidity;BME280_pressure;Samples;Min_cycle;Max_cycle;Signal;HPM_P1;HPM_P2
2021/10/19 00:00:10;;;;;;;18.13;15.32;;;12.50;99.90;;;;;;5020574;28;20065;-68
2021/10/19 00:02:36;;;;;;;17.58;14.85;;;12.50;99.90;;;;;;5011301;28;20164;-68
2021/10/19 00:05:03;;;;;;;22.38;16.50;;;12.50;99.90;;;;;;5020293;28;20696;-66
2021/10/19 00:07:29;;;;;;;19.77;16.48;;;12.60;99.90;;;;;;5019892;28;20090;-67
2021/10/19 00:09:54;;;;;;;22.98;16.45;;;12.60;99.90;;;;;;5017871;28;20042;-66
2021/10/19 00:12:20;;;;;;;20.00;15.07;;;12.50;99.90;;;;;;5007629;28;20067;-67
2021/10/19 00:14:46;;;;;;;18.52;16.20;;;12.60;99.90;;;;;;5018433;28;20118;-67
2021/10/19 00:17:12;;;;;;;18.17;15.75;;;12.50;99.90;;;;;;5015546;28;20048;-67
2021/10/19 00:19:37;;;;;;;19.00;15.70;;;12.50;99.90;;;;;;5021945;28;20087;-67
2021/10/19 00:22:04;;;;;;;19.98;14.82;;;12.60;99.90;;;;;;5015775;28;20457;-67
2021/10/19 00:24:30;;;;;;;18.60;16.40;;;12.50;99.90;;;;;;5019479;28;20498;-67
2021/10/19 00:26:56;;;;;;;18.73;15.90;;;12.50;99.90;;;;;;5027354;28;20052;-67
2021/10/19 00:29:21;;;;;;;17.13;14.73;;;12.50;99.90;;;;;;5021629;28;20044;-67
2021/10/19 00:31:48;;;;;;;19.25;16.48;;;12.50;99.90;;;;;;5015340;28;20073;-67
2021/10/19 00:34:14;;;;;;;17.45;15.55;;;12.50;99.90;;;;;;5012276;28;20115;-67
2021/10/19 00:36:39;;;;;;;17.98;15.35;;;12.50;99.90;;;;;;5018260;28;20138;-67
2021/10/19 00:39:05;;;;;;;16.95;14.57;;;12.50;99.90;;;;;;5016366;28;20037;-67
2021/10/19 00:41:31;;;;;;;17.50;15.70;;;12.50;99.90;;;;;;5017992;28;20206;-67
2021/10/19 00:43:57;;;;;;;19.33;15.48;;;12.50;99.90;;;;;;5017848;28;20114;-67
2021/10/19 00:46:22;;;;;;;17.33;15.10;;;12.50;99.90;;;;;;5020361;28;20046;-67
2021/10/19 00:48:48;;;;;;;18.60;15.88;;;12.50;99.90;;;;;;5007309;28;20065;-67
2021/10/19 00:51:15;;;;;;;18.35;15.60;;;12.50;99.90;;;;;;5019500;28;20037;-67
2021/10/19 00:53:41;;;;;;;20.42;15.05;;;12.50;99.90;;;;;;5023934;28;20053;-67
2021/10/19 00:56:08;;;;;;;17.38;15.48;;;12.50;99.90;;;;;;5027134;28;20370;-67
2021/10/19 00:58:36;;;;;;;20.23;16.63;;;12.60;99.90;;;;;;5021694;28;20064;-67
2021/10/19 01:01:02;;;;;;;19.38;16.02;;;12.60;99.90;;;;;;5014172;28;20042;-67
2021/10/19 01:03:28;;;;;;;21.13;16.35;;;12.50;99.90;;;;;;5019524;28;20040;-67
2021/10/19 01:05:54;;;;;;;20.27;15.88;;;12.60;99.90;;;;;;5009277;28;20058;-67
2021/10/19 01:08:20;;;;;;;20.83;17.45;;;12.60;99.90;;;;;;5017109;28;20056;-67
2021/10/19 01:10:45;;;;;;;17.58;15.43;;;12.60;99.90;;;;;;5014207;28;20465;-67
2021/10/19 01:13:12;;;;;;;18.83;15.30;;;12.60;99.90;;;;;;5016694;28;20037;-67
2021/10/19 01:15:38;;;;;;;20.80;16.27;;;12.60;99.90;;;;;;5021766;28;20038;-67
2021/10/19 01:18:04;;;;;;;18.10;16.20;;;12.60;99.90;;;;;;5016402;28;20042;-67
2021/10/19 01:20:32;;;;;;;16.48;14.63;;;12.60;99.90;;;;;;5030860;28;20191;-67
2021/10/19 01:23:00;;;;;;;20.38;17.02;;;12.60;99.90;;;;;;5013205;28;20442;-67
2021/10/19 01:25:28;;;;;;;18.27;16.30;;;12.60;99.90;;;;;;5009289;28;20579;-67
2021/10/19 01:27:59;;;;;;;18.92;15.55;;;12.70;99.90;;;;;;5024337;28;20261;-67
2021/10/19 01:30:26;;;;;;;20.67;16.45;;;12.70;99.90;;;;;;5018323;28;20041;-67
2021/10/19 01:32:53;;;;;;;18.02;16.13;;;12.70;99.90;;;;;;5013584;28;20106;-67
2021/10/19 01:35:29;;;;;;;23.77;17.23;;;12.70;99.90;;;;;;5019536;28;20103;-67
2021/10/19 01:37:54;;;;;;;19.73;16.83;;;12.70;99.90;;;;;;5016799;28;20042;-67
2021/10/19 01:40:20;;;;;;;20.73;17.77;;;12.70;99.90;;;;;;5016808;28;20572;-67
2021/10/19 01:42:46;;;;;;;19.02;15.70;;;12.70;99.90;;;;;;5009530;28;20382;-67
2021/10/19 01:45:16;;;;;;;19.15;16.13;;;12.60;99.90;;;;;;5025970;28;20045;-67
2021/10/19 01:47:42;;;;;;;18.25;16.00;;;12.60;99.90;;;;;;5017540;28;20046;-67
2021/10/19 01:50:10;;;;;;;19.10;17.13;;;12.60;99.90;;;;;;5023618;28;20040;-67
2021/10/19 01:52:35;;;;;;;20.52;16.15;;;12.60;99.90;;;;;;5011950;28;20400;-67
2021/10/19 01:55:04;;;;;;;17.83;15.38;;;12.60;99.90;;;;;;5016219;28;20045;-67
2021/10/19 01:57:33;;;;;;;17.65;15.70;;;12.60;99.90;;;;;;5028992;28;20076;-67
2021/10/19 01:59:59;;;;;;;18.52;15.77;;;12.60;99.90;;;;;;5024000;28;20431;-67
2021/10/19 02:02:25;;;;;;;18.85;15.88;;;12.60;99.90;;;;;;5008885;28;20124;-67
2021/10/19 02:04:51;;;;;;;18.90;16.75;;;12.60;99.90;;;;;;5014696;28;20060;-67
2021/10/19 02:07:17;;;;;;;21.25;16.35;;;12.60;99.90;;;;;;5014547;28;20042;-67
2021/10/19 02:09:43;;;;;;;20.40;16.65;;;12.60;99.90;;;;;;5023334;28;20117;-67
2021/10/19 02:12:08;;;;;;;18.10;15.63;;;12.60;99.90;;;;;;5016954;28;20045;-67
2021/10/19 02:14:34;;;;;;;18.67;16.67;;;12.60;99.90;;;;;;5030198;28;20078;-67
2021/10/19 02:17:00;;;;;;;17.52;15.68;;;12.60;99.90;;;;;;5010846;28;20134;-67
2021/10/19 02:19:26;;;;;;;18.95;16.67;;;12.60;99.90;;;;;;5020088;28;20053;-67
2021/10/19 02:21:57;;;;;;;17.70;15.93;;;12.60;99.90;;;;;;5015026;28;20103;-67
2021/10/19 02:24:23;;;;;;;20.20;16.50;;;12.60;99.90;;;;;;5015028;28;20121;-67
2021/10/19 02:26:50;;;;;;;21.45;16.92;;;12.60;99.90;;;;;;5013756;28;20592;-67
2021/10/19 02:29:17;;;;;;;19.73;15.52;;;12.60;99.90;;;;;;5015577;28;20151;-67
2021/10/19 02:31:44;;;;;;;18.90;16.48;;;12.60;99.90;;;;;;5021998;28;20284;-67
2021/10/19 02:34:10;;;;;;;19.05;16.08;;;12.60;99.90;;;;;;5013591;28;20512;-67
2021/10/19 02:36:36;;;;;;;17.60;15.13;;;12.60;99.90;;;;;;5014185;28;20030;-67
2021/10/19 02:39:06;;;;;;;18.50;16.05;;;12.60;99.90;;;;;;5018761;28;20640;-67
2021/10/19 02:41:33;;;;;;;20.48;17.45;;;12.60;99.90;;;;;;5016322;28;20053;-67
2021/10/19 02:43:59;;;;;;;19.15;15.68;;;12.60;99.90;;;;;;5009185;28;20037;-67
2021/10/19 02:46:25;;;;;;;17.50;15.68;;;12.60;99.90;;;;;;5014632;28;20369;-67
2021/10/19 02:48:52;;;;;;;18.15;16.25;;;12.60;99.90;;;;;;5019420;28;20040;-67
2021/10/19 02:51:18;;;;;;;19.52;15.90;;;12.60;99.90;;;;;;5021486;28;20437;-67
2021/10/19 02:53:44;;;;;;;19.92;17.30;;;12.60;99.90;;;;;;5015761;28;20046;-67
2021/10/19 02:56:10;;;;;;;18.88;16.73;;;12.70;99.90;;;;;;5025532;28;20408;-67
2021/10/19 02:58:35;;;;;;;19.27;17.17;;;12.70;99.90;;;;;;5014421;28;20060;-67
2021/10/19 03:01:01;;;;;;;20.27;16.35;;;12.70;99.90;;;;;;5031914;28;20513;-67
2021/10/19 03:03:27;;;;;;;18.17;16.27;;;12.70;99.90;;;;;;5013798;28;20497;-67
2021/10/19 03:05:52;;;;;;;21.05;17.00;;;12.70;99.90;;;;;;5018372;28;20110;-67
2021/10/19 03:08:18;;;;;;;18.60;16.20;;;12.70;99.90;;;;;;5023252;28;20051;-67
2021/10/19 03:10:44;;;;;;;18.33;16.25;;;12.70;99.90;;;;;;5015515;28;20120;-67
2021/10/19 03:13:09;;;;;;;20.95;15.98;;;12.70;99.90;;;;;;5013203;28;20458;-67
2021/10/19 03:15:35;;;;;;;18.35;16.45;;;12.70;99.90;;;;;;5025621;28;20034;-67
2021/10/19 03:18:01;;;;;;;18.13;16.23;;;12.70;99.90;;;;;;5020506;28;20070;-67
2021/10/19 03:20:26;;;;;;;19.90;15.38;;;12.70;99.90;;;;;;5009912;28;20030;-67
2021/10/19 03:22:52;;;;;;;20.77;16.70;;;12.70;99.90;;;;;;5023783;28;20052;-67
2021/10/19 03:25:18;;;;;;;19.67;16.63;;;12.70;99.90;;;;;;5000031;28;20057;-67
2021/10/19 03:27:43;;;;;;;18.00;16.08;;;12.70;99.90;;;;;;5014955;28;20038;-67
2021/10/19 03:30:09;;;;;;;18.35;16.02;;;12.80;99.90;;;;;;5012838;28;20153;-67
2021/10/19 03:32:35;;;;;;;18.85;16.35;;;12.90;99.90;;;;;;5019519;28;20139;-67
2021/10/19 03:35:01;;;;;;;17.33;15.48;;;12.90;99.90;;;;;;5020039;28;20048;-67
2021/10/19 03:37:27;;;;;;;18.55;16.30;;;12.90;99.90;;;;;;5016972;28;20057;-67
2021/10/19 03:39:52;;;;;;;17.45;15.60;;;12.90;99.90;;;;;;5015601;28;20041;-67
2021/10/19 03:42:18;;;;;;;19.30;16.98;;;13.00;99.90;;;;;;5015753;28;20159;-67
2021/10/19 03:44:44;;;;;;;18.35;15.68;;;13.00;99.90;;;;;;5021815;28;20033;-67
2021/10/19 03:47:10;;;;;;;17.50;15.60;;;13.00;99.90;;;;;;5020126;28;20044;-67
2021/10/19 03:49:35;;;;;;;18.30;15.88;;;13.00;99.90;;;;;;5033680;28;20094;-67
2021/10/19 03:52:01;;;;;;;17.45;15.52;;;13.00;99.90;;;;;;5013719;28;20121;-67
2021/10/19 03:54:27;;;;;;;21.38;16.77;;;13.00;99.90;;;;;;5017288;28;20034;-67
2021/10/19 03:56:53;;;;;;;17.80;16.00;;;13.00;99.90;;;;;;5022183;28;20057;-67
2021/10/19 03:59:18;;;;;;;18.15;15.70;;;13.00;99.90;;;;;;5025994;28;20071;-67
2021/10/19 04:01:44;;;;;;;19.15;15.68;;;13.00;99.90;;;;;;5011954;28;20037;-67
2021/10/19 04:04:10;;;;;;;18.90;15.27;;;13.00;99.90;;;;;;5037387;28;20048;-67
2021/10/19 04:06:35;;;;;;;19.23;16.80;;;13.00;99.90;;;;;;5022461;28;20133;-67
2021/10/19 04:09:01;;;;;;;17.98;16.05;;;13.00;99.90;;;;;;5022554;28;20165;-67
2021/10/19 04:11:27;;;;;;;19.50;15.90;;;13.00;99.90;;;;;;5014018;28;20045;-67
2021/10/19 04:13:53;;;;;;;18.80;16.65;;;13.00;99.90;;;;;;5020645;28;20496;-67
2021/10/19 04:16:18;;;;;;;19.02;16.63;;;13.00;99.90;;;;;;5021889;28;20056;-67
2021/10/19 04:18:44;;;;;;;18.77;16.48;;;13.10;99.90;;;;;;5017067;28;20041;-67
2021/10/19 04:21:10;;;;;;;18.10;16.20;;;13.10;99.90;;;;;;5019381;28;20065;-67
2021/10/19 04:23:36;;;;;;;17.45;15.50;;;13.00;99.90;;;;;;5019252;28;20044;-67
2021/10/19 04:26:02;;;;;;;18.50;16.60;;;13.00;99.90;;;;;;5025809;28;20049;-67
2021/10/19 04:28:28;;;;;;;19.38;16.33;;;13.10;99.90;;;;;;5017472;28;20144;-67
2021/10/19 04:30:53;;;;;;;18.25;16.35;;;13.10;99.90;;;;;;5019297;28;20395;-67
2021/10/19 04:33:19;;;;;;;18.05;15.70;;;13.10;99.90;;;;;;5008868;28;20504;-67
2021/10/19 04:35:45;;;;;;;18.83;16.85;;;13.10;99.90;;;;;;5024356;28;20034;-67
2021/10/19 04:38:11;;;;;;;18.95;16.85;;;13.10;99.90;;;;;;5017272;28;20124;-67
2021/10/19 04:40:37;;;;;;;18.45;16.50;;;13.10;99.90;;;;;;5017128;28;20038;-67
2021/10/19 04:43:03;;;;;;;18.27;15.77;;;13.10;99.90;;;;;;5015307;28;20497;-67
2021/10/19 04:45:30;;;;;;;21.85;17.50;;;13.20;99.90;;;;;;5023802;28;20489;-67
2021/10/19 04:47:57;;;;;;;19.42;15.68;;;13.20;99.90;;;;;;5019216;28;20038;-67
2021/10/19 04:50:24;;;;;;;20.88;17.20;;;13.20;99.90;;;;;;5027071;28;20477;-67
2021/10/19 04:52:49;;;;;;;19.20;16.65;;;13.20;99.90;;;;;;5017087;28;20402;-67
2021/10/19 04:55:15;;;;;;;20.35;16.88;;;13.20;99.90;;;;;;5015436;28;20056;-67
2021/10/19 04:57:41;;;;;;;21.27;16.52;;;13.20;99.90;;;;;;5024102;28;20107;-67
2021/10/19 05:00:07;;;;;;;22.88;16.92;;;13.20;99.90;;;;;;5017198;28;20053;-67
2021/10/19 05:02:41;;;;;;;21.35;16.88;;;13.20;99.90;;;;;;5018315;28;20037;-67
2021/10/19 05:05:07;;;;;;;22.58;17.40;;;13.20;99.90;;;;;;5015279;28;20049;-67
2021/10/19 05:07:32;;;;;;;21.33;16.90;;;13.20;99.90;;;;;;5025213;28;20082;-67
2021/10/19 05:09:58;;;;;;;22.58;16.52;;;13.20;99.90;;;;;;5016894;28;20564;-67
2021/10/19 05:12:24;;;;;;;20.25;16.80;;;13.20;99.90;;;;;;5019714;28;20493;-67
2021/10/19 05:14:49;;;;;;;19.65;17.30;;;13.20;99.90;;;;;;5019783;28;20037;-67
2021/10/19 05:17:15;;;;;;;18.42;16.42;;;13.20;99.90;;;;;;5015248;28;20342;-67
2021/10/19 05:19:41;;;;;;;21.95;16.52;;;13.20;99.90;;;;;;5015460;28;20481;-67
2021/10/19 05:22:06;;;;;;;18.05;16.08;;;13.20;99.90;;;;;;5017713;28;20436;-67
2021/10/19 05:24:32;;;;;;;19.30;17.17;;;13.20;99.90;;;;;;5011397;28;20106;-67
2021/10/19 05:26:58;;;;;;;20.88;17.60;;;13.20;99.90;;;;;;5026266;28;20061;-67
2021/10/19 05:29:23;;;;;;;20.30;17.25;;;13.20;99.90;;;;;;5020583;28;20044;-67
2021/10/19 05:31:49;;;;;;;19.27;16.17;;;13.20;99.90;;;;;;5017600;28;20036;-67
2021/10/19 05:34:15;;;;;;;21.65;16.92;;;13.20;99.90;;;;;;5017131;28;20504;-67
2021/10/19 05:36:40;;;;;;;19.55;17.55;;;13.20;99.90;;;;;;5009878;28;20051;-67
2021/10/19 05:39:06;;;;;;;22.83;17.08;;;13.20;99.90;;;;;;5016940;28;20038;-67
2021/10/19 05:41:32;;;;;;;22.58;17.60;;;13.20;99.90;;;;;;5010898;28;20048;-67
2021/10/19 05:43:58;;;;;;;20.35;18.10;;;13.10;99.90;;;;;;5012729;28;20346;-67
2021/10/19 05:46:23;;;;;;;19.77;16.88;;;13.20;99.90;;;;;;5012051;28;20085;-67
2021/10/19 05:48:49;;;;;;;21.13;17.30;;;13.20;99.90;;;;;;5016912;28;20037;-67
2021/10/19 05:51:15;;;;;;;18.95;16.92;;;13.20;99.90;;;;;;5011376;28;20037;-67
2021/10/19 05:53:40;;;;;;;21.30;17.88;;;13.30;99.90;;;;;;5023389;28;20576;-67
2021/10/19 05:56:06;;;;;;;21.48;18.80;;;13.20;99.90;;;;;;5017380;28;20494;-68
2021/10/19 05:58:32;;;;;;;24.50;18.38;;;13.30;99.90;;;;;;5021590;28;20034;-67
2021/10/19 06:00:57;;;;;;;22.05;17.90;;;13.30;99.90;;;;;;5007682;28;20049;-67
2021/10/19 06:03:23;;;;;;;21.63;18.52;;;13.30;99.90;;;;;;5019062;28;20133;-67
2021/10/19 06:05:49;;;;;;;25.42;20.27;;;13.30;99.90;;;;;;5015535;28;20083;-67
2021/10/19 06:08:14;;;;;;;23.23;18.95;;;13.30;99.90;;;;;;5015580;28;20114;-67
2021/10/19 06:10:40;;;;;;;28.17;19.52;;;13.30;99.90;;;;;;5013307;28;20048;-67
2021/10/19 06:13:06;;;;;;;23.73;20.00;;;13.30;99.90;;;;;;5010831;28;20084;-67
2021/10/19 06:15:31;;;;;;;25.83;20.15;;;13.30;99.90;;;;;;5018357;28;20486;-67
2021/10/19 06:17:57;;;;;;;28.52;20.70;;;13.30;99.90;;;;;;5018040;28;20099;-67
2021/10/19 06:20:23;;;;;;;23.40;20.90;;;13.40;99.90;;;;;;5016980;28;20501;-67
2021/10/19 06:22:49;;;;;;;23.15;20.35;;;13.40;99.90;;;;;;5011643;28;20104;-67
2021/10/19 06:25:14;;;;;;;28.00;20.58;;;13.40;99.90;;;;;;5013632;28;20137;-67
2021/10/19 06:27:40;;;;;;;26.30;19.15;;;13.40;99.90;;;;;;5019774;28;20042;-67
2021/10/19 06:30:07;;;;;;;25.92;20.27;;;13.40;99.90;;;;;;5020688;28;20042;-67
2021/10/19 06:32:32;;;;;;;22.90;20.42;;;13.40;99.90;;;;;;5011671;28;20153;-67
2021/10/19 06:34:58;;;;;;;24.90;21.23;;;13.50;99.90;;;;;;5014097;28;20425;-67
2021/10/19 06:37:24;;;;;;;28.77;20.67;;;13.50;99.90;;;;;;5019797;28;20041;-67
2021/10/19 06:39:49;;;;;;;26.35;21.70;;;13.50;99.90;;;;;;5022943;28;20038;-67
2021/10/19 06:42:16;;;;;;;29.95;21.50;;;13.50;99.90;;;;;;5011099;28;20038;-67
2021/10/19 06:44:42;;;;;;;23.92;20.15;;;13.50;99.90;;;;;;5017273;28;20053;-67
2021/10/19 06:47:07;;;;;;;23.98;20.75;;;13.50;99.90;;;;;;5014954;28;20038;-67
2021/10/19 06:49:33;;;;;;;23.27;20.25;;;13.60;99.90;;;;;;5015803;28;20068;-67
2021/10/19 06:51:59;;;;;;;22.15;19.98;;;13.60;99.90;;;;;;5014831;28;20038;-67
2021/10/19 06:54:24;;;;;;;23.58;21.05;;;13.60;99.90;;;;;;5018500;28;20045;-67
2021/10/19 06:56:50;;;;;;;22.15;19.05;;;13.60;99.90;;;;;;5016828;28;20177;-67
2021/10/19 06:59:16;;;;;;;26.95;21.88;;;13.60;99.90;;;;;;5011985;28;20048;-67
2021/10/19 07:01:41;;;;;;;22.75;20.17;;;13.60;99.90;;;;;;5013526;28;20033;-67
2021/10/19 07:04:07;;;;;;;22.70;18.80;;;13.60;99.90;;;;;;5019027;28;20410;-67
2021/10/19 07:06:34;;;;;;;23.08;19.15;;;13.70;99.90;;;;;;5022581;28;20411;-67
2021/10/19 07:09:00;;;;;;;22.05;19.80;;;13.70;99.90;;;;;;5014677;28;20400;-68
2021/10/19 07:11:26;;;;;;;24.13;20.83;;;13.70;99.90;;;;;;5016181;28;20038;-67
2021/10/19 07:13:53;;;;;;;23.17;20.35;;;13.70;99.90;;;;;;5021775;28;20505;-68
2021/10/19 07:16:19;;;;;;;21.38;19.13;;;13.80;99.90;;;;;;5026259;28;20041;-68
2021/10/19 07:18:44;;;;;;;23.65;19.90;;;13.80;99.90;;;;;;4995599;28;20107;-68
2021/10/19 07:21:10;;;;;;;23.45;19.10;;;13.80;99.90;;;;;;5017587;28;20068;-68
2021/10/19 07:23:36;;;;;;;21.73;19.42;;;13.80;99.90;;;;;;5019158;28;20053;-68
2021/10/19 07:26:01;;;;;;;20.77;18.63;;;13.90;99.90;;;;;;5020241;28;20667;-68
2021/10/19 07:28:27;;;;;;;23.48;19.90;;;13.90;99.90;;;;;;5016602;28;20099;-67
2021/10/19 07:30:53;;;;;;;22.45;19.98;;;13.90;99.90;;;;;;5012408;28;20066;-67
2021/10/19 07:33:19;;;;;;;21.27;19.02;;;13.90;99.90;;;;;;5020850;28;20103;-67
2021/10/19 07:35:44;;;;;;;20.00;18.05;;;13.90;99.90;;;;;;5017717;28;20042;-67
2021/10/19 07:38:12;;;;;;;18.88;16.92;;;14.00;99.90;;;;;;5026018;28;20064;-67
2021/10/19 07:40:38;;;;;;;21.33;19.15;;;14.00;99.90;;;;;;5019096;28;20472;-67
2021/10/19 07:43:04;;;;;;;21.50;17.98;;;14.00;99.90;;;;;;5017468;28;20048;-67
2021/10/19 07:45:31;;;;;;;22.05;19.02;;;14.10;99.90;;;;;;5012394;28;20053;-68
2021/10/19 07:48:01;;;;;;;21.52;19.40;;;14.10;99.90;;;;;;5016520;28;20060;-68
2021/10/19 07:50:30;;;;;;;20.77;17.95;;;14.10;99.90;;;;;;5021450;28;20146;-67
2021/10/19 07:53:00;;;;;;;21.17;18.98;;;14.10;99.90;;;;;;5021032;28;20385;-67
2021/10/19 07:55:27;;;;;;;18.73;16.83;;;14.10;99.90;;;;;;5012659;28;20040;-67
2021/10/19 07:57:54;;;;;;;19.45;17.48;;;14.10;99.90;;;;;;5016833;28;20058;-67
2021/10/19 08:00:27;;;;;;;21.20;18.23;;;14.20;99.90;;;;;;5018132;28;20323;-67
2021/10/19 08:02:54;;;;;;;19.52;17.52;;;14.20;99.90;;;;;;5026129;28;20053;-67
2021/10/19 08:05:20;;;;;;;20.67;17.65;;;14.20;99.90;;;;;;5016723;28;20049;-67
2021/10/19 08:07:48;;;;;;;19.67;16.73;;;14.30;99.90;;;;;;5014003;28;20038;-68
2021/10/19 08:10:17;;;;;;;18.13;16.33;;;14.30;99.90;;;;;;5016368;28;20041;-68
2021/10/19 08:12:43;;;;;;;19.00;17.10;;;14.30;99.90;;;;;;5015017;28;20054;-68
2021/10/19 08:15:11;;;;;;;18.85;16.85;;;14.40;99.90;;;;;;5027798;28;20083;-68
2021/10/19 08:17:37;;;;;;;17.15;15.45;;;14.40;99.90;;;;;;5013235;28;20120;-68
2021/10/19 08:20:03;;;;;;;16.63;14.95;;;14.40;99.90;;;;;;5021839;28;20160;-68
2021/10/19 08:22:31;;;;;;;17.75;16.05;;;14.50;99.90;;;;;;5015264;28;20057;-68
2021/10/19 08:24:58;;;;;;;16.17;14.57;;;14.40;99.90;;;;;;5016558;28;20042;-68
2021/10/19 08:27:25;;;;;;;16.90;15.30;;;14.50;99.90;;;;;;5013131;28;20046;-68
2021/10/19 08:29:51;;;;;;;16.02;14.48;;;14.50;99.90;;;;;;5028007;28;20038;-68
2021/10/19 08:32:17;;;;;;;16.25;14.70;;;14.50;99.90;;;;;;5018443;28;20042;-68
2021/10/19 08:34:43;;;;;;;16.20;14.65;;;14.50;99.90;;;;;;5016364;28;20053;-68
2021/10/19 08:37:10;;;;;;;16.77;15.13;;;14.60;99.90;;;;;;5018873;28;20041;-68
2021/10/19 08:39:36;;;;;;;16.63;15.13;;;14.60;99.90;;;;;;5024482;28;20128;-68
2021/10/19 08:42:02;;;;;;;18.23;15.98;;;14.60;99.90;;;;;;5013132;28;20084;-68
2021/10/19 08:44:28;;;;;;;20.75;15.60;;;14.60;99.90;;;;;;5017634;28;20523;-68
2021/10/19 08:46:54;;;;;;;16.63;14.90;;;14.70;99.90;;;;;;5017504;28;20038;-68
2021/10/19 08:49:20;;;;;;;15.45;13.98;;;14.60;99.90;;;;;;5010540;28;20209;-68
2021/10/19 08:51:46;;;;;;;17.42;15.52;;;14.70;99.90;;;;;;5020549;28;20045;-68
2021/10/19 08:54:11;;;;;;;14.82;13.32;;;14.60;99.90;;;;;;5021907;28;20042;-68
2021/10/19 08:56:41;;;;;;;17.30;13.38;;;14.70;99.90;;;;;;5024382;28;20429;-68
2021/10/19 08:59:07;;;;;;;14.85;13.35;;;14.70;99.90;;;;;;5019083;28;20057;-68
2021/10/19 09:01:41;;;;;;;14.82;13.20;;;14.70;99.90;;;;;;5015532;28;20038;-68
2021/10/19 09:04:09;;;;;;;14.27;12.98;;;14.80;99.90;;;;;;5010663;28;20121;-68
2021/10/19 09:06:37;;;;;;;13.80;12.40;;;14.80;99.90;;;;;;5019115;28;20045;-68
2021/10/19 09:09:13;;;;;;;12.65;11.45;;;14.80;99.90;;;;;;5018181;28;20073;-68
2021/10/19 09:11:45;;;;;;;13.23;11.82;;;14.90;99.90;;;;;;5026296;28;20138;-68
2021/10/19 09:14:12;;;;;;;13.48;12.18;;;14.90;99.90;;;;;;5015985;28;20048;-68
2021/10/19 09:16:51;;;;;;;12.20;10.90;;;15.00;99.90;;;;;;5019016;28;20036;-68
2021/10/19 09:19:21;;;;;;;12.10;10.95;;;15.00;99.90;;;;;;5019655;28;20061;-68
2021/10/19 09:21:55;;;;;;;15.18;13.65;;;15.10;99.90;;;;;;5015480;28;20042;-68
2021/10/19 09:24:26;;;;;;;12.77;11.55;;;15.10;99.90;;;;;;5020171;28;20477;-68
2021/10/19 09:26:56;;;;;;;12.88;11.68;;;15.10;99.90;;;;;;5012924;28;20132;-68
2021/10/19 09:29:23;;;;;;;13.20;11.93;;;15.10;99.90;;;;;;5010765;28;20135;-68
2021/10/19 09:31:50;;;;;;;13.05;11.75;;;15.20;99.90;;;;;;5018959;28;20041;-68
2021/10/19 09:34:16;;;;;;;13.50;12.13;;;15.20;99.90;;;;;;5013247;28;20077;-68
2021/10/19 09:36:41;;;;;;;13.57;12.10;;;15.20;99.90;;;;;;5019783;28;20068;-68
2021/10/19 09:39:07;;;;;;;13.32;11.57;;;15.30;99.90;;;;;;5021425;28;20048;-68
2021/10/19 09:41:46;;;;;;;13.57;12.25;;;15.30;99.90;;;;;;5013809;28;20443;-68
2021/10/19 09:44:16;;;;;;;12.90;11.70;;;15.40;99.90;;;;;;5018454;28;20087;-68
2021/10/19 09:46:42;;;;;;;13.38;11.98;;;15.40;99.90;;;;;;5013392;28;20480;-69
2021/10/19 09:49:12;;;;;;;12.48;11.23;;;15.40;99.90;;;;;;5015590;28;20092;-68
2021/10/19 09:51:38;;;;;;;12.50;11.30;;;15.50;99.90;;;;;;5019919;28;20505;-68
2021/10/19 09:54:09;;;;;;;11.05;10.05;;;15.60;99.90;;;;;;5019720;28;20117;-68
2021/10/19 09:56:37;;;;;;;12.15;11.00;;;15.60;99.90;;;;;;5013171;28;20041;-68
2021/10/19 09:59:03;;;;;;;11.18;9.95;;;15.60;99.90;;;;;;5014903;28;20029;-68
2021/10/19 10:01:31;;;;;;;11.70;10.52;;;15.60;99.90;;;;;;5018603;28;20049;-68
2021/10/19 10:03:57;;;;;;;12.40;11.23;;;15.80;99.90;;;;;;5022912;28;20033;-68
2021/10/19 10:06:24;;;;;;;11.57;10.27;;;15.70;99.90;;;;;;5008586;28;20554;-68
2021/10/19 10:08:50;;;;;;;11.93;10.73;;;15.80;99.90;;;;;;5014591;28;20099;-68
2021/10/19 10:11:17;;;;;;;11.55;10.43;;;15.80;99.90;;;;;;5012203;28;20382;-68
2021/10/19 10:13:53;;;;;;;10.93;9.90;;;15.90;99.90;;;;;;5018199;28;20048;-68
2021/10/19 10:16:19;;;;;;;10.07;9.07;;;15.90;99.90;;;;;;5019153;28;20139;-68
2021/10/19 10:18:45;;;;;;;11.15;10.15;;;15.90;99.90;;;;;;5019009;28;20529;-68
2021/10/19 10:21:13;;;;;;;10.05;9.13;;;15.90;99.90;;;;;;5013660;28;20504;-68
2021/10/19 10:23:40;;;;;;;10.75;9.75;;;15.90;99.90;;;;;;5020524;28;20034;-68
2021/10/19 10:26:10;;;;;;;10.65;9.75;;;15.90;99.90;;;;;;5009817;28;20113;-68
2021/10/19 10:28:35;;;;;;;10.25;9.35;;;16.00;99.90;;;;;;5018291;28;20464;-68
2021/10/19 10:31:06;;;;;;;10.73;9.75;;;16.00;99.90;;;;;;5020753;28;20108;-68
2021/10/19 10:33:42;;;;;;;10.80;9.80;;;16.10;99.90;;;;;;5019904;28;20040;-68
2021/10/19 10:36:10;;;;;;;10.23;9.32;;;16.10;99.90;;;;;;5018237;28;20029;-68
2021/10/19 10:38:38;;;;;;;9.10;8.25;;;16.10;99.90;;;;;;5012338;28;20038;-68
2021/10/19 10:41:12;;;;;;;10.63;9.63;;;16.10;99.90;;;;;;5018358;28;20125;-68
2021/10/19 10:43:38;;;;;;;;;;;16.10;99.90;;;;;;5014086;28;20034;-68
2021/10/19 10:46:06;;;;;;;9.50;8.65;;;16.20;99.90;;;;;;5020112;28;19948;-68
2021/10/19 10:48:36;;;;;;;9.52;8.73;;;16.20;99.90;;;;;;5012838;28;20432;-68
2021/10/19 10:51:03;;;;;;;9.88;8.88;;;16.20;99.90;;;;;;5015956;28;20371;-68
2021/10/19 10:53:36;;;;;;;8.77;7.97;;;16.30;99.90;;;;;;5011199;28;20069;-68
2021/10/19 10:56:03;;;;;;;10.70;9.75;;;16.30;99.90;;;;;;5025057;28;20521;-68
2021/10/19 10:58:35;;;;;;;10.48;9.48;;;16.30;99.90;;;;;;5011692;28;20092;-68
2021/10/19 11:01:14;;;;;;;9.98;8.98;;;16.20;99.90;;;;;;5014808;28;20072;-68
2021/10/19 11:03:42;;;;;;;10.30;9.40;;;16.30;99.90;;;;;;5011482;28;20052;-68
2021/10/19 11:06:10;;;;;;;10.38;9.38;;;16.20;99.90;;;;;;5025309;28;20498;-68
2021/10/19 11:08:36;;;;;;;11.68;10.57;;;16.30;99.90;;;;;;5016079;28;20413;-68
2021/10/19 11:11:09;;;;;;;10.98;9.95;;;16.20;99.90;;;;;;5021178;28;20045;-68
2021/10/19 11:13:57;;;;;;;11.50;10.35;;;16.30;99.90;;;;;;5008590;28;20117;-68
2021/10/19 11:16:35;;;;;;;10.48;9.55;;;16.30;99.90;;;;;;5029096;28;20116;-68
2021/10/19 11:19:05;;;;;;;11.55;10.45;;;16.30;99.90;;;;;;5012743;28;20461;-68
2021/10/19 11:21:32;;;;;;;12.10;11.10;;;16.30;99.90;;;;;;5016952;28;20085;-68
2021/10/19 11:23:58;;;;;;;11.85;10.65;;;16.40;99.90;;;;;;5011784;28;21062;-68
2021/10/19 11:26:24;;;;;;;14.10;12.65;;;16.40;99.90;;;;;;5011342;28;20121;-68
2021/10/19 11:28:53;;;;;;;11.77;10.35;;;16.40;99.90;;;;;;5028854;28;20133;-68
2021/10/19 11:31:18;;;;;;;12.55;11.40;;;16.40;99.90;;;;;;5014055;28;20112;-68
2021/10/19 11:33:46;;;;;;;12.70;11.18;;;16.40;99.90;;;;;;5008140;28;20121;-68
2021/10/19 11:36:13;;;;;;;11.43;10.18;;;16.40;99.90;;;;;;5014767;28;20052;-68
2021/10/19 11:38:44;;;;;;;12.18;10.98;;;16.40;99.90;;;;;;5018617;28;20055;-68
2021/10/19 11:41:12;;;;;;;12.88;11.65;;;16.40;99.90;;;;;;5017648;28;20128;-68
2021/10/19 11:43:49;;;;;;;11.50;10.40;;;16.50;99.90;;;;;;5012015;28;20502;-68
2021/10/19 11:46:21;;;;;;;11.50;10.50;;;16.50;99.90;;;;;;5020177;28;20135;-68
2021/10/19 11:48:48;;;;;;;13.13;11.57;;;16.50;99.90;;;;;;5022449;28;20401;-68
2021/10/19 11:51:15;;;;;;;11.57;10.48;;;16.50;99.90;;;;;;5016306;28;20034;-65
2021/10/19 11:53:48;;;;;;;11.85;10.77;;;16.60;99.90;;;;;;5025907;28;20453;-66
2021/10/19 11:56:16;;;;;;;12.45;11.00;;;16.60;99.90;;;;;;5010340;28;20073;-66
2021/10/19 11:58:48;;;;;;;12.25;10.65;;;16.60;99.90;;;;;;5019223;28;20497;-66
2021/10/19 12:01:15;;;;;;;10.68;9.50;;;16.70;99.90;;;;;;5013996;28;20052;-66
2021/10/19 12:03:41;;;;;;;9.93;9.02;;;16.70;99.90;;;;;;5017660;28;20066;-67
2021/10/19 12:06:12;;;;;;;10.43;9.38;;;16.80;99.90;;;;;;5014388;28;20041;-67
2021/10/19 12:08:42;;;;;;;9.07;8.23;;;16.80;99.90;;;;;;5021478;28;20429;-67
2021/10/19 12:11:10;;;;;;;9.52;8.63;;;16.80;99.90;;;;;;5014304;28;20041;-67
2021/10/19 12:13:40;;;;;;;10.00;8.68;;;16.80;99.90;;;;;;5026959;28;20046;-67
2021/10/19 12:16:17;;;;;;;8.93;8.13;;;16.80;99.90;;;;;;5016697;28;20037;-67
2021/10/19 12:18:44;;;;;;;9.25;8.45;;;16.90;99.90;;;;;;5019638;28;20099;-67
2021/10/19 12:21:14;;;;;;;10.10;9.18;;;17.00;99.90;;;;;;5013352;28;20087;-67
2021/10/19 12:23:48;;;;;;;9.80;8.80;;;17.00;99.90;;;;;;5015185;28;20488;-67
2021/10/19 12:26:19;;;;;;;10.70;9.70;;;17.00;99.90;;;;;;5019663;28;20045;-67